Boston, Massachusetts
Traffic Map
Current Weather Conditions
Boston, Massachusetts
Few Clouds
Few Clouds
20°
Feels Like: 20°
Wind Chill: 20° Ceiling: Unl
Heat Index: 20° Visibility: 10mi
Dew Point: Wind: 5mph
Humidity: 45% Direction: ° ()
Pressure: 29.97in Gusts: 0mph
Raw Report DataKBOS 181454Z VRB04KT 10SM FEW250 20/08 A2997 RMK AO2 SLP148 T02000078 58000
Traffic Incident Summary
Active as of:
Severity:
Category:
InformationThere was an issue retrieving the traffic information for this location. Please try a different location or try again shortly.
Advertisements
Track Severe Weather on mobile